Time;durP1;ratioP1;P1;durP2;ratioP2;P2;SDS_P1;SDS_P2;PMS_P1;PMS_P2;Temp;Humidity;BMP_temperature;BMP_pressure;BME280_temperature;BME280_humidity;BME280_pressure;Samples;Min_cycle;Max_cycle;Signal;HPM_P1;HPM_P2
2021/05/16 00:01:09;;;;;;;11.02;3.13;;;13.60;55.70;;;;;;5056008;28;20021;-80
2021/05/16 00:03:36;;;;;;;8.40;3.20;;;13.50;55.60;;;;;;5073616;28;20025;-86
2021/05/16 00:06:03;;;;;;;10.60;3.47;;;13.50;55.70;;;;;;5073689;28;20017;-85
2021/05/16 00:08:29;;;;;;;6.82;3.42;;;13.50;55.80;;;;;;5072872;28;20055;-80
2021/05/16 00:10:56;;;;;;;10.90;2.95;;;13.40;55.70;;;;;;5073152;28;20048;-81
2021/05/16 00:13:22;;;;;;;7.22;3.25;;;13.40;55.70;;;;;;5073280;28;20026;-83
2021/05/16 00:15:49;;;;;;;13.48;4.20;;;13.30;55.60;;;;;;5073016;28;20072;-84
2021/05/16 00:18:15;;;;;;;6.63;3.17;;;13.30;55.70;;;;;;5071889;28;20041;-85
2021/05/16 00:20:41;;;;;;;8.45;3.65;;;13.30;55.80;;;;;;5055650;28;20037;-85
2021/05/16 00:23:08;;;;;;;7.95;3.47;;;13.30;55.80;;;;;;5056023;28;20077;-85
2021/05/16 00:25:35;;;;;;;6.82;2.80;;;13.20;55.70;;;;;;5072345;28;20227;-81
2021/05/16 00:28:01;;;;;;;8.20;3.60;;;13.20;55.90;;;;;;5072505;28;20037;-84
2021/05/16 00:30:28;;;;;;;7.60;3.70;;;13.10;55.70;;;;;;5052767;28;20029;-81
2021/05/16 00:32:56;;;;;;;10.13;3.63;;;13.10;55.80;;;;;;5052748;28;20036;-84
2021/05/16 00:35:24;;;;;;;7.45;3.47;;;13.10;55.90;;;;;;5052679;28;20029;-83
2021/05/16 00:37:50;;;;;;;12.00;4.05;;;13.10;56.00;;;;;;5052803;28;20037;-82
2021/05/16 00:40:17;;;;;;;6.55;2.42;;;13.00;55.90;;;;;;5052782;28;20037;-83
2021/05/16 00:42:44;;;;;;;9.43;3.85;;;13.00;56.00;;;;;;5053490;28;20049;-81
2021/05/16 00:45:11;;;;;;;8.23;2.92;;;12.90;55.90;;;;;;5036029;28;20021;-80
2021/05/16 00:47:38;;;;;;;9.70;2.47;;;12.90;55.90;;;;;;5035534;28;20037;-81
2021/05/16 00:50:09;;;;;;;8.35;3.20;;;12.90;56.00;;;;;;5048481;28;20391;-85
2021/05/16 00:52:41;;;;;;;6.20;2.85;;;12.80;55.90;;;;;;5032629;28;20043;-86
2021/05/16 00:55:10;;;;;;;12.15;2.95;;;12.80;55.90;;;;;;5025479;28;20108;-82
2021/05/16 00:57:38;;;;;;;7.82;3.53;;;12.80;56.00;;;;;;5024551;28;20100;-83
2021/05/16 01:00:07;;;;;;;4.53;2.60;;;12.70;55.90;;;;;;5043391;28;20544;-82
2021/05/16 01:02:33;;;;;;;7.75;3.00;;;12.70;56.00;;;;;;5038936;28;20040;-84
2021/05/16 01:04:59;;;;;;;9.25;3.33;;;12.70;56.10;;;;;;5055012;28;20415;-80
2021/05/16 01:07:26;;;;;;;10.18;3.25;;;12.60;55.90;;;;;;5039138;28;20211;-80
2021/05/16 01:09:53;;;;;;;6.07;3.03;;;12.50;55.80;;;;;;5035050;28;20014;-82
2021/05/16 01:12:21;;;;;;;9.68;3.60;;;12.50;55.90;;;;;;5051885;28;20041;-80
2021/05/16 01:14:48;;;;;;;7.25;2.83;;;12.50;56.00;;;;;;5054940;28;20017;-79
2021/05/16 01:17:14;;;;;;;11.10;3.13;;;12.50;56.00;;;;;;5036578;28;20391;-81
2021/05/16 01:19:42;;;;;;;5.90;2.78;;;12.50;56.10;;;;;;5039612;28;20028;-83
2021/05/16 01:22:08;;;;;;;8.80;3.13;;;12.40;56.00;;;;;;5023569;28;20036;-83
2021/05/16 01:24:37;;;;;;;8.90;3.15;;;12.40;56.00;;;;;;5023977;28;20075;-83
2021/05/16 01:27:10;;;;;;;11.95;3.38;;;12.30;55.90;;;;;;5024954;28;20037;-83
2021/05/16 01:29:37;;;;;;;6.60;3.00;;;12.30;56.10;;;;;;5025202;28;20371;-83
2021/05/16 01:32:04;;;;;;;7.03;3.25;;;12.30;56.00;;;;;;5013154;28;20501;-84
2021/05/16 01:34:30;;;;;;;5.15;2.78;;;12.30;56.10;;;;;;5013260;28;20047;-83
2021/05/16 01:36:56;;;;;;;8.13;3.40;;;12.30;56.20;;;;;;5043049;28;20037;-84
2021/05/16 01:39:23;;;;;;;9.27;3.25;;;12.20;56.10;;;;;;5053466;28;20029;-84
2021/05/16 01:41:49;;;;;;;11.75;3.53;;;12.20;56.10;;;;;;5032312;28;20047;-86
2021/05/16 01:44:17;;;;;;;7.93;3.72;;;12.20;56.20;;;;;;5047962;28;20098;-86
2021/05/16 01:46:45;;;;;;;8.73;2.60;;;12.20;56.30;;;;;;5016154;28;20045;-86
2021/05/16 01:49:12;;;;;;;7.72;3.28;;;12.20;56.30;;;;;;5028324;28;20541;-85
2021/05/16 01:51:38;;;;;;;8.70;2.67;;;12.10;56.20;;;;;;5042260;28;20033;-86
2021/05/16 01:54:07;;;;;;;5.55;2.35;;;12.10;56.30;;;;;;5028861;28;20255;-87
2021/05/16 01:56:34;;;;;;;7.93;3.17;;;12.10;56.90;;;;;;5045412;28;20026;-85
2021/05/16 01:59:04;;;;;;;9.38;3.05;;;12.10;56.40;;;;;;5030386;28;20037;-85
2021/05/16 02:01:32;;;;;;;6.05;2.63;;;12.00;56.30;;;;;;5029732;28;20034;-84
2021/05/16 02:04:04;;;;;;;7.90;2.90;;;12.00;56.30;;;;;;5014940;28;20040;-83
2021/05/16 02:06:31;;;;;;;9.20;2.78;;;12.00;56.40;;;;;;5031839;28;20029;-86
2021/05/16 02:09:01;;;;;;;7.05;3.58;;;12.00;56.40;;;;;;5014542;28;20113;-84
2021/05/16 02:11:28;;;;;;;6.13;2.97;;;12.00;56.50;;;;;;5028911;28;20076;-84
2021/05/16 02:14:02;;;;;;;8.88;3.42;;;12.00;56.50;;;;;;5028434;28;20468;-83
2021/05/16 02:16:31;;;;;;;8.38;3.40;;;12.00;56.50;;;;;;5028822;28;20029;-83
2021/05/16 02:19:04;;;;;;;10.27;4.22;;;12.00;56.50;;;;;;5050143;28;20212;-83
2021/05/16 02:21:33;;;;;;;6.80;3.38;;;12.00;56.50;;;;;;5024037;28;20037;-83
2021/05/16 02:23:59;;;;;;;7.93;2.60;;;12.00;56.60;;;;;;5027147;28;20036;-83
2021/05/16 02:26:34;;;;;;;9.77;3.05;;;12.00;56.60;;;;;;5027921;28;20035;-84
2021/05/16 02:29:01;;;;;;;9.40;2.85;;;12.00;56.60;;;;;;5018949;28;20030;-82
2021/05/16 02:31:27;;;;;;;9.95;3.58;;;11.90;56.50;;;;;;5033740;28;20049;-83
2021/05/16 02:33:57;;;;;;;9.15;3.63;;;12.00;56.80;;;;;;5017608;28;20041;-84
2021/05/16 02:36:23;;;;;;;11.90;3.38;;;11.90;56.60;;;;;;5033146;28;20464;-83
2021/05/16 02:38:49;;;;;;;5.60;2.88;;;11.90;56.60;;;;;;5034486;28;20029;-83
2021/05/16 02:41:16;;;;;;;7.38;2.63;;;11.90;56.60;;;;;;5033168;28;20132;-82
2021/05/16 02:43:43;;;;;;;7.35;3.35;;;11.90;56.70;;;;;;5018138;28;20536;-83
2021/05/16 02:46:12;;;;;;;5.03;2.25;;;11.90;56.80;;;;;;5033139;28;20033;-83
2021/05/16 02:48:38;;;;;;;9.02;3.08;;;11.90;56.80;;;;;;5049399;28;20038;-83
2021/05/16 02:51:06;;;;;;;7.22;2.80;;;11.90;56.80;;;;;;5050938;28;20021;-83
2021/05/16 02:53:37;;;;;;;7.40;2.75;;;11.90;56.80;;;;;;5034920;28;20039;-82
2021/05/16 02:56:04;;;;;;;6.32;2.97;;;11.90;56.80;;;;;;5035326;28;20045;-83
2021/05/16 02:58:32;;;;;;;6.03;2.67;;;11.90;56.90;;;;;;5001598;28;20025;-84
2021/05/16 03:00:59;;;;;;;5.85;2.97;;;11.90;56.90;;;;;;5033335;28;20057;-82
2021/05/16 03:03:32;;;;;;;6.85;3.10;;;11.80;56.80;;;;;;5029787;28;20095;-82
2021/05/16 03:06:03;;;;;;;8.95;3.15;;;11.80;56.80;;;;;;5032715;28;20037;-82
2021/05/16 03:08:31;;;;;;;6.13;2.88;;;11.80;56.90;;;;;;5033713;28;20033;-82
2021/05/16 03:10:59;;;;;;;8.38;2.67;;;11.80;56.90;;;;;;5032904;28;20029;-85
2021/05/16 03:13:25;;;;;;;6.20;2.70;;;11.70;56.70;;;;;;5033226;28;20496;-85
2021/05/16 03:15:52;;;;;;;5.80;2.78;;;11.70;56.80;;;;;;5033866;28;20105;-84
2021/05/16 03:18:19;;;;;;;6.88;2.78;;;11.70;56.80;;;;;;5035081;28;20486;-83
2021/05/16 03:20:45;;;;;;;8.07;2.97;;;11.70;56.90;;;;;;5035000;28;20048;-82
2021/05/16 03:23:14;;;;;;;7.18;2.75;;;11.70;56.90;;;;;;5036118;28;20067;-81
2021/05/16 03:25:40;;;;;;;8.35;2.67;;;11.60;56.80;;;;;;5035440;28;20345;-82
2021/05/16 03:28:07;;;;;;;6.13;2.78;;;11.60;56.80;;;;;;5033303;28;20037;-82
2021/05/16 03:30:34;;;;;;;5.07;2.92;;;11.60;56.90;;;;;;5028766;28;20124;-83
2021/05/16 03:33:00;;;;;;;6.35;2.65;;;11.60;57.00;;;;;;5031682;28;20077;-82
2021/05/16 03:35:26;;;;;;;8.07;2.78;;;11.60;57.00;;;;;;5027166;28;20035;-81
2021/05/16 03:37:52;;;;;;;7.32;3.35;;;11.50;56.90;;;;;;5034894;28;20060;-81
2021/05/16 03:40:18;;;;;;;10.93;3.33;;;11.50;56.90;;;;;;5046320;28;20029;-82
2021/05/16 03:42:44;;;;;;;5.15;2.80;;;11.40;56.80;;;;;;5051117;28;20045;-82
2021/05/16 03:45:11;;;;;;;6.78;2.42;;;11.50;57.00;;;;;;5034551;28;20024;-81
2021/05/16 03:47:39;;;;;;;8.30;2.78;;;11.40;56.90;;;;;;5034736;28;20076;-81
2021/05/16 03:50:10;;;;;;;5.82;2.55;;;11.40;56.90;;;;;;5034144;28;20043;-81
2021/05/16 03:52:37;;;;;;;4.72;2.13;;;11.40;57.00;;;;;;5035243;28;20033;-82
2021/05/16 03:55:04;;;;;;;5.70;2.35;;;11.30;56.80;;;;;;5033396;28;20032;-83
2021/05/16 03:57:30;;;;;;;4.88;2.63;;;11.40;57.10;;;;;;5015605;28;20037;-82
2021/05/16 03:59:56;;;;;;;3.95;2.30;;;11.30;57.00;;;;;;5029692;28;20057;-83
2021/05/16 04:02:23;;;;;;;8.00;3.03;;;11.30;57.00;;;;;;5028283;28;20033;-80
2021/05/16 04:04:49;;;;;;;5.82;2.90;;;11.30;57.00;;;;;;5044930;28;20033;-82
2021/05/16 04:07:15;;;;;;;7.75;2.97;;;11.20;56.90;;;;;;5045032;28;20025;-81
2021/05/16 04:09:41;;;;;;;6.15;2.45;;;11.20;57.00;;;;;;5028244;28;20029;-78
2021/05/16 04:12:07;;;;;;;8.27;2.78;;;11.20;57.00;;;;;;5029476;28;20051;-81
2021/05/16 04:14:34;;;;;;;6.70;2.65;;;11.20;57.00;;;;;;5012516;28;20029;-84
2021/05/16 04:17:00;;;;;;;9.90;2.22;;;11.10;56.90;;;;;;5028780;28;20032;-82
2021/05/16 04:19:27;;;;;;;9.27;3.05;;;11.10;56.90;;;;;;5045372;28;20120;-81
2021/05/16 04:21:53;;;;;;;6.50;2.53;;;11.10;57.00;;;;;;5044735;28;20044;-80
2021/05/16 04:24:20;;;;;;;5.65;2.53;;;11.10;57.00;;;;;;5044653;28;20025;-80
2021/05/16 04:26:49;;;;;;;6.95;2.60;;;11.10;57.00;;;;;;5028947;28;20575;-81
2021/05/16 04:29:16;;;;;;;5.63;2.55;;;11.00;56.90;;;;;;5029143;28;20033;-84
2021/05/16 04:31:41;;;;;;;7.47;2.92;;;11.00;57.00;;;;;;5032027;28;20059;-82
2021/05/16 04:34:08;;;;;;;5.70;2.80;;;11.00;57.00;;;;;;5028407;28;20037;-80
2021/05/16 04:36:34;;;;;;;7.97;3.30;;;11.00;57.00;;;;;;5048993;28;20017;-82
2021/05/16 04:39:00;;;;;;;10.43;2.95;;;11.00;57.10;;;;;;5053137;28;20033;-83
2021/05/16 04:41:26;;;;;;;6.10;3.08;;;10.90;56.90;;;;;;5029916;28;20037;-83
2021/05/16 04:43:52;;;;;;;4.70;2.70;;;10.90;56.90;;;;;;5047375;28;20064;-83
2021/05/16 04:46:18;;;;;;;8.98;2.65;;;10.90;57.00;;;;;;5046845;28;20026;-81
2021/05/16 04:48:44;;;;;;;4.65;2.75;;;10.90;57.00;;;;;;5054939;28;20041;-80
2021/05/16 04:51:10;;;;;;;5.05;2.80;;;10.90;57.00;;;;;;5061805;28;20063;-81
2021/05/16 04:53:37;;;;;;;4.30;2.30;;;10.90;57.10;;;;;;5043774;28;20075;-80
2021/05/16 04:56:04;;;;;;;9.35;3.38;;;10.90;57.10;;;;;;5062293;28;20519;-80
2021/05/16 04:58:30;;;;;;;8.80;2.85;;;10.90;57.10;;;;;;5035111;28;20029;-80
2021/05/16 05:00:56;;;;;;;6.47;3.05;;;10.90;57.10;;;;;;5042578;28;20041;-81
2021/05/16 05:03:24;;;;;;;4.93;2.40;;;10.90;57.10;;;;;;5035306;28;20197;-82
2021/05/16 05:05:54;;;;;;;4.43;2.60;;;10.90;57.20;;;;;;5023508;28;20049;-80
2021/05/16 05:08:25;;;;;;;6.28;2.10;;;10.90;57.20;;;;;;5049356;28;20472;-83
2021/05/16 05:10:51;;;;;;;3.47;2.47;;;10.90;57.30;;;;;;5060506;28;20033;-82
2021/05/16 05:13:17;;;;;;;5.50;2.60;;;10.90;57.30;;;;;;5045909;28;20037;-80
2021/05/16 05:15:43;;;;;;;7.95;2.95;;;10.90;57.30;;;;;;5061741;28;20049;-83
2021/05/16 05:18:09;;;;;;;5.93;2.63;;;10.90;57.30;;;;;;5060703;28;20033;-84
2021/05/16 05:20:35;;;;;;;4.57;2.25;;;11.00;57.50;;;;;;5042429;28;20036;-84
2021/05/16 05:23:01;;;;;;;5.63;2.67;;;11.00;57.50;;;;;;5060295;28;20041;-83
2021/05/16 05:25:28;;;;;;;7.47;2.50;;;11.10;57.60;;;;;;5059613;28;20052;-83
2021/05/16 05:27:55;;;;;;;6.55;3.05;;;11.20;57.70;;;;;;5061092;28;20028;-82
2021/05/16 05:30:23;;;;;;;7.00;2.50;;;11.30;57.80;;;;;;5060449;28;20096;-81
2021/05/16 05:32:49;;;;;;;7.13;2.55;;;11.30;57.80;;;;;;5042370;28;20021;-85
2021/05/16 05:35:15;;;;;;;5.35;2.25;;;11.40;57.90;;;;;;5059610;28;20044;-82
2021/05/16 05:37:42;;;;;;;7.65;2.50;;;11.50;58.00;;;;;;5042807;28;20088;-82
2021/05/16 05:40:09;;;;;;;4.90;2.35;;;11.60;58.10;;;;;;5042585;28;20041;-87
2021/05/16 05:42:36;;;;;;;5.78;2.80;;;11.60;58.10;;;;;;5042209;28;20044;-84
2021/05/16 05:45:04;;;;;;;5.38;2.58;;;11.60;58.00;;;;;;5060061;28;20029;-83
2021/05/16 05:47:29;;;;;;;8.18;2.30;;;11.70;58.10;;;;;;5041180;28;20766;-83
2021/05/16 05:49:56;;;;;;;6.22;2.25;;;11.80;58.30;;;;;;5040682;28;20089;-82
2021/05/16 05:52:21;;;;;;;5.50;2.63;;;11.90;58.40;;;;;;5059383;28;20076;-84
2021/05/16 05:54:47;;;;;;;11.85;3.40;;;12.00;58.60;;;;;;5060971;28;20016;-80
2021/05/16 05:57:14;;;;;;;8.38;2.85;;;12.10;58.70;;;;;;5059821;28;20033;-87
2021/05/16 05:59:40;;;;;;;6.47;2.75;;;12.20;58.80;;;;;;5041313;28;20029;-77
2021/05/16 06:02:06;;;;;;;5.18;2.40;;;12.30;58.80;;;;;;5057732;28;20045;-82
2021/05/16 06:04:32;;;;;;;7.28;2.35;;;12.40;58.80;;;;;;5056934;28;20064;-78
2021/05/16 06:06:58;;;;;;;5.55;2.40;;;12.60;59.20;;;;;;5040266;28;20029;-79
2021/05/16 06:09:25;;;;;;;6.18;3.08;;;12.60;59.10;;;;;;5060624;28;20085;-77
2021/05/16 06:11:51;;;;;;;5.78;2.63;;;12.80;59.30;;;;;;5058448;28;20433;-82
2021/05/16 06:14:17;;;;;;;6.68;2.97;;;12.90;59.40;;;;;;5042092;28;20057;-86
2021/05/16 06:16:43;;;;;;;4.32;2.40;;;13.00;59.40;;;;;;5024925;28;20037;-78
2021/05/16 06:19:09;;;;;;;4.97;2.15;;;13.20;59.60;;;;;;5027669;28;20028;-78
2021/05/16 06:21:35;;;;;;;6.43;2.58;;;13.30;59.60;;;;;;5044138;28;20049;-78
2021/05/16 06:24:11;;;;;;;6.53;2.53;;;13.40;59.70;;;;;;5061023;28;20025;-78
2021/05/16 06:26:42;;;;;;;6.30;2.70;;;13.50;59.70;;;;;;5038747;28;20030;-78
2021/05/16 06:29:13;;;;;;;7.43;2.95;;;13.70;59.90;;;;;;5061265;28;20545;-79
2021/05/16 06:31:40;;;;;;;10.55;3.85;;;13.90;60.60;;;;;;5063100;28;20276;-79
2021/05/16 06:34:07;;;;;;;9.07;2.92;;;14.10;61.20;;;;;;5061708;28;20041;-78
2021/05/16 06:36:33;;;;;;;12.43;2.90;;;14.30;61.70;;;;;;5060279;28;20578;-80
2021/05/16 06:38:59;;;;;;;4.20;2.00;;;14.60;62.10;;;;;;5051792;28;20037;-77
2021/05/16 06:41:26;;;;;;;9.45;2.90;;;14.90;62.20;;;;;;5038575;28;20029;-79
2021/05/16 06:43:53;;;;;;;17.80;3.72;;;15.10;62.20;;;;;;5039521;28;20468;-82
2021/05/16 06:46:19;;;;;;;8.15;2.95;;;15.20;62.10;;;;;;5039879;28;20258;-80
2021/05/16 06:48:45;;;;;;;6.57;2.20;;;15.30;62.10;;;;;;5021548;28;20067;-82
2021/05/16 06:51:12;;;;;;;5.40;2.78;;;15.30;62.20;;;;;;5021178;28;20085;-79
2021/05/16 06:53:38;;;;;;;4.60;2.33;;;15.40;62.40;;;;;;5020141;28;20037;-77
2021/05/16 06:56:04;;;;;;;6.32;2.30;;;15.40;62.50;;;;;;5037113;28;20499;-77
2021/05/16 06:58:30;;;;;;;6.28;2.47;;;15.50;62.80;;;;;;5020213;28;20038;-77
2021/05/16 07:00:56;;;;;;;6.72;2.58;;;15.50;62.80;;;;;;5039678;28;20036;-77
2021/05/16 07:03:22;;;;;;;7.47;2.40;;;15.50;63.00;;;;;;5022162;28;20033;-79
2021/05/16 07:05:48;;;;;;;9.18;2.42;;;15.50;63.10;;;;;;5024612;28;20466;-82
2021/05/16 07:08:14;;;;;;;8.15;2.83;;;15.60;63.40;;;;;;5031698;28;20235;-81
2021/05/16 07:10:40;;;;;;;7.70;2.58;;;15.60;63.50;;;;;;5061602;28;20033;-82
2021/05/16 07:13:06;;;;;;;6.35;2.28;;;15.70;63.70;;;;;;5043480;28;20112;-78
2021/05/16 07:15:33;;;;;;;5.30;2.88;;;15.80;63.90;;;;;;5044451;28;20028;-81
2021/05/16 07:17:59;;;;;;;5.53;2.17;;;15.80;63.90;;;;;;5028497;28;20104;-80
2021/05/16 07:20:25;;;;;;;6.93;2.70;;;15.90;64.00;;;;;;5049944;28;20033;-80
2021/05/16 07:22:51;;;;;;;8.20;2.20;;;16.00;64.10;;;;;;5064134;28;20037;-81
2021/05/16 07:25:17;;;;;;;5.15;2.15;;;16.10;64.10;;;;;;5044872;28;20445;-80
2021/05/16 07:27:44;;;;;;;8.57;2.10;;;16.10;64.00;;;;;;5045022;28;20069;-80
2021/05/16 07:30:11;;;;;;;6.05;2.30;;;16.20;64.10;;;;;;5026521;28;20033;-80
2021/05/16 07:32:38;;;;;;;6.47;2.42;;;16.10;63.80;;;;;;5026442;28;20033;-81
2021/05/16 07:35:05;;;;;;;3.70;1.90;;;16.20;63.90;;;;;;5010337;28;20190;-81
2021/05/16 07:37:32;;;;;;;6.72;2.88;;;16.20;63.90;;;;;;5026068;28;20166;-81
2021/05/16 07:39:58;;;;;;;4.18;2.13;;;16.20;63.80;;;;;;5041746;28;20073;-81
2021/05/16 07:42:25;;;;;;;5.47;1.90;;;16.20;63.70;;;;;;5038993;28;20036;-82
2021/05/16 07:44:51;;;;;;;8.23;2.40;;;16.20;63.70;;;;;;5020240;28;20022;-82
2021/05/16 07:47:19;;;;;;;8.23;2.35;;;16.30;63.90;;;;;;5017742;28;20042;-80
2021/05/16 07:49:45;;;;;;;6.95;2.67;;;16.30;63.80;;;;;;5017795;28;20032;-81
2021/05/16 07:52:13;;;;;;;6.50;2.33;;;16.30;63.80;;;;;;5002491;28;20034;-81
2021/05/16 07:54:39;;;;;;;5.57;2.08;;;16.40;63.90;;;;;;5004375;28;20026;-81
2021/05/16 07:57:07;;;;;;;6.75;1.83;;;16.50;64.00;;;;;;5005258;28;20030;-82
2021/05/16 07:59:34;;;;;;;9.50;2.95;;;16.60;64.00;;;;;;5021706;28;20133;-81
2021/05/16 08:02:00;;;;;;;6.65;2.30;;;16.80;64.20;;;;;;5021143;28;20578;-82
2021/05/16 08:04:26;;;;;;;5.65;2.50;;;17.10;64.30;;;;;;5021879;28;20052;-80
2021/05/16 08:06:52;;;;;;;4.15;2.20;;;17.20;64.00;;;;;;5003664;28;20085;-83
2021/05/16 08:09:18;;;;;;;8.70;2.33;;;17.60;64.30;;;;;;5022649;28;20026;-82
2021/05/16 08:11:44;;;;;;;3.90;2.25;;;17.80;64.20;;;;;;5026464;28;20122;-81
2021/05/16 08:14:10;;;;;;;8.70;1.77;;;18.00;63.80;;;;;;5045062;28;20036;-84
2021/05/16 08:16:36;;;;;;;5.28;1.95;;;18.20;63.60;;;;;;5044092;28;20044;-84
2021/05/16 08:19:02;;;;;;;5.93;1.60;;;18.40;64.20;;;;;;5042226;28;20030;-84
2021/05/16 08:21:28;;;;;;;4.78;2.05;;;18.50;63.40;;;;;;5022724;28;20041;-85
2021/05/16 08:23:54;;;;;;;9.60;2.33;;;18.60;63.20;;;;;;5043524;28;20041;-83
2021/05/16 08:26:20;;;;;;;5.32;1.95;;;18.70;63.10;;;;;;5037387;28;20151;-83
2021/05/16 08:28:46;;;;;;;5.03;2.13;;;18.60;62.80;;;;;;5034071;28;20037;-82
2021/05/16 08:31:12;;;;;;;3.83;1.60;;;18.60;62.80;;;;;;5035719;28;20033;-83
2021/05/16 08:33:38;;;;;;;6.78;1.85;;;18.60;62.80;;;;;;5037504;28;20548;-79
2021/05/16 08:36:05;;;;;;;5.38;1.73;;;18.50;62.50;;;;;;5037996;28;20057;-81
2021/05/16 08:38:31;;;;;;;4.20;1.90;;;18.50;62.50;;;;;;5040061;28;20075;-81
2021/05/16 08:40:57;;;;;;;4.07;2.20;;;18.50;62.50;;;;;;5038301;28;20259;-81
2021/05/16 08:43:23;;;;;;;6.70;2.30;;;18.60;62.70;;;;;;5040255;28;20591;-82
2021/05/16 08:45:49;;;;;;;5.90;1.88;;;18.70;62.70;;;;;;5039077;28;20353;-85
2021/05/16 08:48:15;;;;;;;5.78;2.13;;;18.80;62.60;;;;;;5059740;28;20109;-83
2021/05/16 08:50:41;;;;;;;8.80;2.35;;;18.90;62.50;;;;;;5031565;28;20028;-83
2021/05/16 08:53:07;;;;;;;4.47;1.98;;;19.10;62.60;;;;;;5049154;28;20020;-82
2021/05/16 08:55:36;;;;;;;9.45;2.38;;;19.20;62.50;;;;;;5037950;28;20021;-77
2021/05/16 08:58:03;;;;;;;4.57;2.30;;;19.20;62.30;;;;;;5039372;28;20032;-81
2021/05/16 09:00:30;;;;;;;3.90;2.20;;;19.30;62.30;;;;;;5060152;28;20033;-82
2021/05/16 09:03:04;;;;;;;5.65;2.70;;;19.20;62.00;;;;;;5047103;28;20190;-79
2021/05/16 09:05:36;;;;;;;5.38;2.40;;;19.30;62.20;;;;;;5058847;28;20030;-80
2021/05/16 09:08:16;;;;;;;6.88;2.40;;;19.30;62.20;;;;;;5053961;28;20037;-79
2021/05/16 09:10:48;;;;;;;3.60;2.20;;;19.30;62.10;;;;;;5015093;28;20026;-78
2021/05/16 09:13:17;;;;;;;7.40;2.50;;;19.40;62.10;;;;;;5038612;28;20136;-81
2021/05/16 09:16:11;;;;;;;5.20;2.40;;;19.40;62.00;;;;;;5049238;28;20037;-79
2021/05/16 09:18:51;;;;;;;5.50;2.53;;;19.60;62.10;;;;;;5050265;28;20320;-79
2021/05/16 09:21:20;;;;;;;10.90;3.08;;;19.70;61.90;;;;;;5059442;28;20509;-78
2021/05/16 09:23:49;;;;;;;6.82;3.13;;;19.80;61.90;;;;;;5042999;28;20041;-80
2021/05/16 09:26:15;;;;;;;6.43;2.90;;;19.90;61.90;;;;;;5025325;28;20029;-81
2021/05/16 09:28:41;;;;;;;7.47;2.90;;;19.90;61.80;;;;;;5027222;28;20081;-80
2021/05/16 09:31:08;;;;;;;9.43;2.85;;;20.10;61.80;;;;;;5046713;28;20040;-83
2021/05/16 09:33:34;;;;;;;12.40;3.65;;;20.30;61.80;;;;;;5045149;28;20025;-81
2021/05/16 09:36:10;;;;;;;9.43;3.83;;;20.40;60.70;;;;;;5065798;28;20023;-85
2021/05/16 09:38:36;;;;;;;9.82;3.08;;;20.40;59.80;;;;;;5061914;28;20028;-76
2021/05/16 09:41:04;;;;;;;8.05;2.55;;;20.40;59.80;;;;;;5035558;28;20056;-78
2021/05/16 09:43:31;;;;;;;9.80;3.30;;;20.40;59.50;;;;;;5063122;28;20513;-77
2021/05/16 09:46:00;;;;;;;10.93;3.85;;;20.40;59.20;;;;;;5055386;28;20047;-78
2021/05/16 09:48:44;;;;;;;10.90;3.58;;;20.60;59.10;;;;;;5054850;28;20136;-78
2021/05/16 09:51:11;;;;;;;10.27;3.22;;;20.70;58.70;;;;;;5073734;28;20024;-84
2021/05/16 09:54:17;;;;;;;9.15;2.78;;;20.90;58.80;;;;;;5059180;28;20017;-78
2021/05/16 09:56:43;;;;;;;7.63;2.50;;;21.00;58.10;;;;;;5055201;28;20033;-78
2021/05/16 09:59:11;;;;;;;8.73;3.00;;;21.00;58.00;;;;;;5076359;28;20013;-79
2021/05/16 10:01:38;;;;;;;6.50;2.60;;;21.20;57.90;;;;;;5059024;28;20040;-79
2021/05/16 10:04:05;;;;;;;8.77;2.55;;;21.20;57.50;;;;;;5041710;28;20033;-80
2021/05/16 10:06:33;;;;;;;8.27;2.42;;;21.10;57.00;;;;;;5058299;28;20077;-80
2021/05/16 10:09:00;;;;;;;8.43;2.50;;;21.10;56.80;;;;;;5041870;28;20021;-79
2021/05/16 10:11:29;;;;;;;7.43;2.33;;;21.10;56.90;;;;;;5058563;28;20028;-79
2021/05/16 10:14:01;;;;;;;9.27;2.75;;;21.20;56.90;;;;;;5044521;28;20037;-78
2021/05/16 10:16:31;;;;;;;12.05;2.97;;;21.40;56.90;;;;;;5037903;28;20039;-78
2021/05/16 10:18:59;;;;;;;5.20;1.90;;;21.50;56.60;;;;;;5025970;28;20028;-79
2021/05/16 10:21:25;;;;;;;10.30;3.15;;;21.60;56.40;;;;;;5066955;28;20086;-83
2021/05/16 10:24:15;;;;;;;7.22;3.00;;;21.70;56.30;;;;;;5052118;28;20027;-80
2021/05/16 10:26:42;;;;;;;8.35;2.97;;;21.90;56.00;;;;;;5071691;28;20021;-79
2021/05/16 10:29:10;;;;;;;7.22;2.58;;;21.90;55.80;;;;;;5067953;28;20059;-79
2021/05/16 10:31:47;;;;;;;7.93;2.47;;;21.90;55.50;;;;;;5055535;28;20032;-82
2021/05/16 10:34:39;;;;;;;12.25;2.55;;;21.80;55.30;;;;;;5054353;28;20052;-80
2021/05/16 10:37:06;;;;;;;8.30;2.67;;;21.80;55.50;;;;;;5064789;28;20021;-80
2021/05/16 10:39:40;;;;;;;6.63;2.60;;;21.90;55.70;;;;;;5040875;28;20029;-81
2021/05/16 10:42:14;;;;;;;8.70;2.75;;;21.90;55.10;;;;;;5074051;28;20036;-82
2021/05/16 10:45:02;;;;;;;6.07;1.90;;;22.00;55.20;;;;;;5071090;28;20021;-82
2021/05/16 10:47:52;;;;;;;6.30;2.00;;;22.10;55.20;;;;;;5043628;28;20118;-82
2021/05/16 10:50:24;;;;;;;4.80;2.10;;;22.10;55.00;;;;;;5056234;28;20025;-81
2021/05/16 10:53:08;;;;;;;6.35;2.08;;;22.20;54.90;;;;;;5043238;28;20029;-81
2021/05/16 10:55:43;;;;;;;9.52;2.53;;;22.00;54.30;;;;;;5053735;28;20034;-77
2021/05/16 10:58:48;;;;;;;6.32;2.15;;;21.90;54.10;;;;;;5045347;28;20053;-80
2021/05/16 11:01:36;;;;;;;4.70;1.58;;;21.60;53.70;;;;;;5034036;28;20033;-82
2021/05/16 11:04:05;;;;;;;4.97;1.85;;;21.40;53.80;;;;;;5012561;28;20412;-81
2021/05/16 11:06:30;;;;;;;4.63;2.00;;;21.10;53.80;;;;;;5031388;28;20380;-82
2021/05/16 11:09:01;;;;;;;4.78;1.50;;;20.90;54.00;;;;;;5043012;28;20070;-76
2021/05/16 11:11:29;;;;;;;6.38;1.88;;;20.70;54.20;;;;;;5016855;28;20480;-76
2021/05/16 11:13:56;;;;;;;6.82;1.67;;;20.50;54.50;;;;;;5019136;28;20030;-75
2021/05/16 11:16:22;;;;;;;5.65;2.05;;;20.30;54.70;;;;;;5012656;28;20033;-77
2021/05/16 11:18:48;;;;;;;9.20;2.67;;;20.20;55.00;;;;;;5041199;28;20110;-82
2021/05/16 11:21:14;;;;;;;7.75;2.28;;;20.10;55.30;;;;;;5051011;28;20028;-83
2021/05/16 11:23:44;;;;;;;3.58;1.50;;;20.00;55.50;;;;;;5050275;28;20071;-84
2021/05/16 11:26:13;;;;;;;6.90;1.48;;;19.90;55.60;;;;;;5049809;28;20025;-81
2021/05/16 11:28:49;;;;;;;6.45;2.22;;;19.90;55.80;;;;;;5049889;28;20024;-82
2021/05/16 11:31:20;;;;;;;3.03;1.45;;;19.80;55.80;;;;;;5036253;28;20047;-80
2021/05/16 11:33:50;;;;;;;4.18;1.70;;;19.70;55.80;;;;;;5049980;28;20021;-77
2021/05/16 11:36:28;;;;;;;2.78;1.40;;;19.70;55.90;;;;;;5049712;28;20064;-79
2021/05/16 11:38:56;;;;;;;3.35;1.55;;;19.70;56.10;;;;;;5031658;28;20504;-77
2021/05/16 11:41:41;;;;;;;6.30;2.33;;;19.70;56.20;;;;;;5049472;28;20131;-79
2021/05/16 11:44:12;;;;;;;5.32;3.05;;;19.90;56.90;;;;;;5048530;28;20033;-79
2021/05/16 11:46:43;;;;;;;6.63;3.13;;;20.20;57.50;;;;;;5048827;28;20048;-80
2021/05/16 11:49:11;;;;;;;8.65;2.60;;;20.50;57.70;;;;;;5049071;28;20068;-77
2021/05/16 11:51:37;;;;;;;3.20;2.47;;;21.00;58.20;;;;;;5031703;28;20063;-77
2021/05/16 11:54:07;;;;;;;2.80;2.20;;;21.30;58.30;;;;;;5049329;28;20033;-81
2021/05/16 11:56:41;;;;;;;3.95;2.13;;;21.80;58.80;;;;;;5031496;28;20488;-78
2021/05/16 11:59:07;;;;;;;3.83;1.88;;;22.10;58.80;;;;;;5018428;28;20044;-78
2021/05/16 12:01:35;;;;;;;2.63;1.77;;;22.60;59.10;;;;;;5016085;28;20430;-80
2021/05/16 12:04:14;;;;;;;2.53;1.77;;;22.90;59.30;;;;;;5036282;28;20525;-81
2021/05/16 12:06:58;;;;;;;3.53;1.77;;;23.20;59.40;;;;;;5012237;28;20418;-83
2021/05/16 12:09:26;;;;;;;4.05;2.00;;;23.60;59.50;;;;;;5055365;28;20072;-85
2021/05/16 12:11:53;;;;;;;2.85;1.30;;;23.90;59.60;;;;;;5030608;28;20491;-79
2021/05/16 12:14:24;;;;;;;3.33;1.75;;;24.10;59.50;;;;;;5024227;28;20024;-81
2021/05/16 12:16:52;;;;;;;4.13;1.27;;;24.20;59.30;;;;;;5039109;28;20025;-82
2021/05/16 12:19:28;;;;;;;2.85;1.60;;;24.30;59.30;;;;;;5039151;28;20043;-79
2021/05/16 12:21:59;;;;;;;3.13;1.50;;;24.30;59.10;;;;;;5039267;28;20051;-79
2021/05/16 12:24:28;;;;;;;1.55;1.05;;;24.40;59.20;;;;;;5032114;28;20025;-79
2021/05/16 12:26:55;;;;;;;1.77;1.38;;;24.50;59.30;;;;;;5039640;28;20376;-80
2021/05/16 12:29:21;;;;;;;1.60;1.33;;;24.70;59.60;;;;;;5040892;28;20020;-80
2021/05/16 12:31:48;;;;;;;3.05;1.20;;;24.80;59.50;;;;;;5067859;28;20479;-82
2021/05/16 12:34:15;;;;;;;2.35;1.30;;;24.90;59.40;;;;;;5019278;28;20091;-81
2021/05/16 12:36:49;;;;;;;2.60;0.93;;;25.00;59.50;;;;;;4993808;28;20032;-80
2021/05/16 12:39:33;;;;;;;;;;;25.10;59.30;;;;;;5028113;28;20038;-80
2021/05/16 12:42:00;;;;;;;1.85;1.08;;;25.20;59.40;;;;;;5010550;28;19917;-81
2021/05/16 12:44:26;;;;;;;1.52;1.00;;;25.40;59.30;;;;;;5010030;28;20029;-79
2021/05/16 12:46:57;;;;;;;1.98;1.10;;;25.50;59.10;;;;;;5009832;28;20079;-81
2021/05/16 12:49:27;;;;;;;3.15;1.05;;;25.70;58.90;;;;;;5010010;28;20480;-82
2021/05/16 12:52:02;;;;;;;1.58;1.13;;;25.80;58.80;;;;;;5009889;28;20489;-84